Time;durP1;ratioP1;P1;durP2;ratioP2;P2;SDS_P1;SDS_P2;PMS_P1;PMS_P2;Temp;Humidity;BMP_temperature;BMP_pressure;BME280_temperature;BME280_humidity;BME280_pressure;Samples;Min_cycle;Max_cycle;Signal;HPM_P1;HPM_P2
2021/12/15 00:00:57;;;;;;;112.47;47.03;;;;;;;3.28;81.33;99580.25;5108519;28;20028;-67
2021/12/15 00:03:24;;;;;;;101.07;41.97;;;;;;;3.25;81.46;99580.75;5110988;28;20443;-67
2021/12/15 00:05:50;;;;;;;118.25;49.22;;;;;;;3.23;81.38;99586.38;5108854;28;20106;-67
2021/12/15 00:08:16;;;;;;;114.60;47.50;;;;;;;3.26;81.55;99582.41;5107223;28;20062;-66
2021/12/15 00:10:44;;;;;;;94.15;41.75;;;;;;;3.28;81.66;99589.25;5111008;28;20043;-67
2021/12/15 00:13:12;;;;;;;105.57;45.80;;;;;;;3.34;82.11;99586.72;5110931;28;20468;-67
2021/12/15 00:15:38;;;;;;;119.30;50.85;;;;;;;3.35;81.76;99585.66;5111584;28;20020;-66
2021/12/15 00:18:03;;;;;;;106.85;48.17;;;;;;;3.35;82.01;99597.31;5111513;28;20042;-66
2021/12/15 00:20:30;;;;;;;94.32;40.85;;;;;;;3.37;81.89;99597.94;5111272;28;20418;-66
2021/12/15 00:22:57;;;;;;;119.93;49.95;;;;;;;3.39;82.20;99600.44;5093148;28;20458;-67
2021/12/15 00:25:25;;;;;;;93.50;40.00;;;;;;;3.39;81.34;99597.72;5111337;28;20119;-67
2021/12/15 00:27:51;;;;;;;77.22;35.33;;;;;;;3.41;81.76;99592.91;5111262;28;20102;-67
2021/12/15 00:30:18;;;;;;;72.45;32.58;;;;;;;3.41;81.41;99582.88;5111155;28;20110;-67
2021/12/15 00:32:44;;;;;;;73.80;34.35;;;;;;;3.42;82.23;99584.53;5110937;28;20027;-66
2021/12/15 00:35:10;;;;;;;71.13;32.58;;;;;;;3.49;81.54;99589.09;5110653;28;20096;-67
2021/12/15 00:37:35;;;;;;;73.90;34.28;;;;;;;3.49;82.10;99589.91;5109164;28;20164;-66
2021/12/15 00:40:03;;;;;;;69.90;33.92;;;;;;;3.48;82.15;99584.72;5108769;28;20099;-67
2021/12/15 00:42:29;;;;;;;73.45;34.03;;;;;;;3.47;82.06;99581.16;5110124;28;20055;-66
2021/12/15 00:44:55;;;;;;;77.32;34.17;;;;;;;3.51;82.06;99586.97;5109392;28;20027;-66
2021/12/15 00:47:20;;;;;;;71.13;32.97;;;;;;;3.57;82.22;99588.81;5109162;28;20503;-66
2021/12/15 00:49:46;;;;;;;73.05;33.50;;;;;;;3.64;81.90;99580.59;5109290;28;20039;-66
2021/12/15 00:52:12;;;;;;;70.75;31.77;;;;;;;3.66;82.11;99578.50;5109733;28;20040;-66
2021/12/15 00:54:38;;;;;;;65.95;30.00;;;;;;;3.63;81.68;99573.50;5109615;28;20106;-66
2021/12/15 00:57:04;;;;;;;69.00;32.78;;;;;;;3.61;81.88;99581.91;5109553;28;20047;-66
2021/12/15 00:59:31;;;;;;;67.20;30.60;;;;;;;3.61;82.25;99586.47;5109221;28;20034;-66
2021/12/15 01:01:57;;;;;;;67.25;29.98;;;;;;;3.60;81.89;99579.38;5112244;28;20041;-66
2021/12/15 01:04:24;;;;;;;71.28;32.65;;;;;;;3.55;81.39;99586.31;5095725;28;20035;-67
2021/12/15 01:06:55;;;;;;;67.82;31.77;;;;;;;3.55;81.85;99593.63;5113737;28;20024;-67
2021/12/15 01:09:26;;;;;;;71.85;32.60;;;;;;;3.57;81.58;99595.06;5113285;28;20027;-66
2021/12/15 01:19:54;;;;;;;58.65;28.42;;;;;;;3.57;82.07;99597.75;5112436;28;20051;-67
2021/12/15 01:22:24;;;;;;;63.10;30.70;;;;;;;3.53;81.61;99599.25;5113205;28;20047;-67
2021/12/15 01:24:52;;;;;;;67.30;30.35;;;;;;;3.52;82.23;99604.91;5113725;28;20035;-67
2021/12/15 01:27:18;;;;;;;63.53;31.63;;;;;;;3.52;81.63;99600.31;5113002;28;20027;-67
2021/12/15 01:29:44;;;;;;;57.88;28.55;;;;;;;3.57;81.99;99605.91;5113108;28;20019;-67
2021/12/15 01:32:10;;;;;;;54.53;28.02;;;;;;;3.64;81.73;99608.56;5113292;28;20045;-66
2021/12/15 01:34:35;;;;;;;58.38;28.25;;;;;;;3.64;81.81;99613.16;5113475;28;20027;-66
2021/12/15 01:37:01;;;;;;;56.05;26.80;;;;;;;3.62;82.53;99610.69;5113373;28;20107;-67
2021/12/15 01:39:26;;;;;;;58.58;29.30;;;;;;;3.61;82.33;99608.19;5112889;28;20047;-67
2021/12/15 01:41:56;;;;;;;59.03;29.83;;;;;;;3.58;81.75;99602.13;5113320;28;20042;-67
2021/12/15 01:47:03;;;;;;;59.13;29.13;;;;;;;3.57;81.78;99600.47;5113332;28;20239;-66
2021/12/15 01:49:41;;;;;;;;;;;;;;;3.56;82.48;99596.09;5112060;28;20019;-66
2021/12/15 01:52:15;;;;;;;56.33;28.88;;;;;;;3.54;82.16;99594.69;5110757;28;19915;-66
2021/12/15 01:54:43;;;;;;;59.75;29.15;;;;;;;3.51;81.53;99593.22;5113242;28;20418;-67
2021/12/15 01:57:12;;;;;;;55.65;28.77;;;;;;;3.51;82.50;99601.38;5112992;28;20043;-66
2021/12/15 01:59:38;;;;;;;55.20;28.20;;;;;;;3.52;81.80;99594.06;5095784;28;20518;-66
2021/12/15 02:02:05;;;;;;;58.55;29.08;;;;;;;3.53;82.50;99591.13;5112494;28;20095;-66
2021/12/15 02:04:31;;;;;;;53.08;26.50;;;;;;;3.55;81.99;99590.91;5110129;28;20093;-67
2021/12/15 02:06:57;;;;;;;57.95;27.75;;;;;;;3.52;81.88;99589.47;5110943;28;20028;-66
2021/12/15 02:10:07;;;;;;;55.83;29.13;;;;;;;3.49;82.03;99598.03;5111715;28;20066;-66
2021/12/15 02:12:17;;;;;;;58.90;29.02;;;;;;;3.51;82.45;99604.06;5098751;28;20403;-67
2021/12/15 02:14:42;;;;;;;61.20;30.60;;;;;;;3.48;82.15;99593.66;5093389;28;20112;-66
2021/12/15 02:17:08;;;;;;;51.40;26.88;;;;;;;3.47;81.80;99594.72;5111061;28;20068;-67
2021/12/15 02:19:34;;;;;;;52.22;27.73;;;;;;;3.45;82.08;99591.44;5112558;28;20380;-67
2021/12/15 02:22:00;;;;;;;50.70;25.38;;;;;;;3.46;81.80;99600.38;5112585;28;20034;-67
2021/12/15 02:24:26;;;;;;;57.70;29.52;;;;;;;3.45;81.71;99598.72;5094476;28;20455;-67
2021/12/15 02:26:58;;;;;;;57.13;28.92;;;;;;;3.43;81.90;99602.47;5111520;28;20043;-68
2021/12/15 02:29:25;;;;;;;66.05;30.75;;;;;;;3.41;81.90;99601.88;5110686;28;20032;-67
2021/12/15 02:32:05;;;;;;;63.30;30.33;;;;;;;3.38;82.18;99607.72;5110823;28;20383;-66
2021/12/15 02:37:18;;;;;;;66.57;32.50;;;;;;;3.34;82.17;99602.97;5110880;28;20031;-66
2021/12/15 02:39:47;;;;;;;65.32;34.05;;;;;;;3.37;81.89;99613.38;5111048;28;20030;-67
2021/12/15 02:42:12;;;;;;;73.40;34.65;;;;;;;3.39;82.60;99611.28;5110299;28;20045;-67
2021/12/15 02:44:43;;;;;;;68.88;32.33;;;;;;;3.41;82.22;99617.31;5110623;28;20042;-68
2021/12/15 02:47:10;;;;;;;77.00;34.20;;;;;;;3.40;82.31;99616.47;5092032;28;20023;-67
2021/12/15 02:49:36;;;;;;;75.28;36.03;;;;;;;3.38;82.02;99624.00;5111086;28;20032;-67
2021/12/15 02:52:03;;;;;;;74.35;34.65;;;;;;;3.38;82.73;99625.91;5111642;28;20043;-67
2021/12/15 02:54:29;;;;;;;76.90;35.85;;;;;;;3.36;81.86;99631.53;5110350;28;20028;-67
2021/12/15 02:56:57;;;;;;;85.20;38.67;;;;;;;3.36;82.37;99645.09;5109249;28;20030;-68
2021/12/15 02:59:29;;;;;;;80.28;36.47;;;;;;;3.39;82.40;99641.13;5109938;28;20019;-69
2021/12/15 03:07:01;;;;;;;74.32;35.08;;;;;;;3.27;81.80;99644.53;5112557;28;20036;-67
2021/12/15 03:17:20;;;;;;;84.50;39.67;;;;;;;3.25;82.39;99643.09;5111803;28;20148;-69
2021/12/15 03:19:46;;;;;;;74.90;33.95;;;;;;;3.35;83.04;99639.91;5112271;28;20051;-67
2021/12/15 03:22:11;;;;;;;72.03;33.80;;;;;;;3.40;82.63;99645.50;5111234;28;20024;-68
2021/12/15 03:24:37;;;;;;;74.05;35.75;;;;;;;3.39;82.52;99651.97;5110553;28;20425;-69
2021/12/15 03:27:08;;;;;;;79.18;35.50;;;;;;;3.40;82.35;99649.03;5110991;28;20103;-68
2021/12/15 03:33:28;;;;;;;84.18;37.05;;;;;;;3.35;81.90;99654.28;5110976;28;20042;-68
2021/12/15 03:35:45;;;;;;;79.88;37.75;;;;;;;3.45;82.09;99652.97;5106996;27;20039;-68
2021/12/15 03:38:08;;;;;;;71.15;33.33;;;;;;;3.51;82.60;99652.09;5111112;28;20492;-68
2021/12/15 03:40:40;;;;;;;76.93;37.20;;;;;;;3.46;81.89;99646.47;5101355;28;20073;-68
2021/12/15 03:43:12;;;;;;;71.60;33.72;;;;;;;3.43;82.57;99647.78;5108949;28;20114;-69
2021/12/15 03:45:59;;;;;;;76.63;34.35;;;;;;;3.40;82.74;99640.06;5108325;28;20031;-68
2021/12/15 03:48:30;;;;;;;64.07;28.80;;;;;;;3.39;82.02;99635.69;5108049;28;20064;-69
2021/12/15 03:50:56;;;;;;;57.42;27.92;;;;;;;3.37;81.73;99640.50;5089687;28;20019;-69
2021/12/15 03:53:23;;;;;;;65.88;32.40;;;;;;;3.34;81.74;99641.75;5110102;28;20031;-69
2021/12/15 03:55:49;;;;;;;67.43;32.28;;;;;;;3.43;82.67;99647.78;5110520;28;20511;-69
2021/12/15 03:58:16;;;;;;;65.90;31.15;;;;;;;3.48;82.09;99647.91;5110974;28;20012;-69
2021/12/15 04:00:49;;;;;;;65.50;30.83;;;;;;;3.56;82.21;99644.94;5109498;28;20039;-68
2021/12/15 04:03:30;;;;;;;69.90;33.90;;;;;;;3.65;82.24;99666.38;5110108;28;20102;-69
2021/12/15 04:05:59;;;;;;;78.03;34.58;;;;;;;3.68;82.69;99664.03;5109523;28;20107;-69
2021/12/15 04:08:25;;;;;;;89.78;36.30;;;;;;;3.68;81.95;99661.31;5109984;28;20035;-69
2021/12/15 04:10:51;;;;;;;87.55;37.85;;;;;;;3.69;81.93;99665.69;5109124;28;20729;-69
2021/12/15 04:13:17;;;;;;;93.43;42.17;;;;;;;3.75;82.71;99669.44;5108452;28;20027;-69
2021/12/15 04:15:47;;;;;;;87.93;40.63;;;;;;;3.75;82.34;99660.44;5109125;28;20034;-68
2021/12/15 04:18:13;;;;;;;132.65;56.28;;;;;;;3.68;81.90;99663.22;5109104;28;20047;-69
2021/12/15 04:20:40;;;;;;;120.97;50.38;;;;;;;3.66;81.69;99668.88;5109333;28;20501;-67
2021/12/15 04:23:08;;;;;;;99.25;44.40;;;;;;;3.69;81.68;99673.03;5109540;28;20034;-68
2021/12/15 04:25:36;;;;;;;101.05;44.35;;;;;;;3.66;81.63;99679.72;5109388;28;20027;-69
2021/12/15 04:28:12;;;;;;;98.82;48.00;;;;;;;3.72;82.07;99676.09;5110030;28;20027;-69
2021/12/15 04:30:43;;;;;;;115.65;50.30;;;;;;;3.74;82.40;99675.91;5109665;28;20111;-69
2021/12/15 04:33:32;;;;;;;128.60;53.65;;;;;;;3.72;81.65;99670.69;5109827;28;20050;-69
2021/12/15 04:35:59;;;;;;;117.95;50.63;;;;;;;3.70;81.41;99685.53;5108338;28;20055;-69
2021/12/15 04:38:27;;;;;;;115.32;51.45;;;;;;;3.64;82.15;99681.84;5110193;28;20391;-69
2021/12/15 04:40:53;;;;;;;117.28;53.65;;;;;;;3.58;81.23;99694.38;5109018;28;20027;-69
2021/12/15 04:43:19;;;;;;;101.93;44.67;;;;;;;3.55;81.57;99686.69;5109512;28;20488;-69
2021/12/15 04:45:45;;;;;;;106.88;48.40;;;;;;;3.60;81.45;99693.31;5109811;28;20024;-69
2021/12/15 04:48:11;;;;;;;109.90;48.75;;;;;;;3.64;82.24;99687.25;5109292;28;20056;-69
2021/12/15 04:50:37;;;;;;;118.72;52.75;;;;;;;3.74;82.32;99681.34;5108977;28;20070;-68
2021/12/15 04:53:05;;;;;;;127.65;53.90;;;;;;;3.82;82.40;99685.66;5109503;28;20028;-69
2021/12/15 04:55:33;;;;;;;122.25;52.28;;;;;;;3.85;82.04;99686.06;5108815;28;20140;-68
2021/12/15 04:58:01;;;;;;;118.97;50.88;;;;;;;3.86;82.22;99686.88;5109697;28;20116;-69
2021/12/15 05:00:29;;;;;;;135.70;56.97;;;;;;;3.78;81.49;99698.84;5091288;28;20024;-69
2021/12/15 05:02:56;;;;;;;143.18;60.03;;;;;;;3.80;81.55;99691.31;5109170;28;20034;-68
2021/12/15 05:05:23;;;;;;;126.95;56.55;;;;;;;3.82;82.30;99700.06;5109238;28;20422;-68
2021/12/15 05:07:50;;;;;;;110.28;48.08;;;;;;;3.85;81.99;99696.91;5109779;28;20028;-69
2021/12/15 05:10:17;;;;;;;96.78;42.53;;;;;;;3.80;81.75;99691.31;5109522;28;20024;-67
2021/12/15 05:12:43;;;;;;;103.47;48.53;;;;;;;3.82;82.23;99693.78;5110639;28;20031;-67
2021/12/15 05:15:09;;;;;;;99.07;43.88;;;;;;;3.77;81.37;99701.75;5110551;28;20077;-67
2021/12/15 05:17:35;;;;;;;82.95;36.92;;;;;;;3.70;81.46;99707.25;5110686;28;20027;-67
2021/12/15 05:20:03;;;;;;;92.13;39.50;;;;;;;3.73;82.10;99704.09;5110088;28;20054;-67
2021/12/15 05:22:31;;;;;;;91.97;41.30;;;;;;;3.80;81.58;99704.88;5110633;28;20036;-67
2021/12/15 05:24:56;;;;;;;95.72;42.45;;;;;;;3.81;81.81;99706.53;5109951;28;20039;-67
2021/12/15 05:27:22;;;;;;;100.43;42.53;;;;;;;3.87;81.49;99707.53;5110360;28;20494;-66
2021/12/15 05:29:49;;;;;;;99.75;43.95;;;;;;;3.91;81.52;99711.47;5111871;28;20030;-67
2021/12/15 05:32:18;;;;;;;102.47;43.63;;;;;;;3.94;82.00;99724.59;5110365;28;20056;-67
2021/12/15 05:34:46;;;;;;;92.47;44.13;;;;;;;3.87;81.94;99719.19;5110136;28;20030;-67
2021/12/15 05:37:12;;;;;;;92.85;43.05;;;;;;;3.79;81.15;99708.63;5108140;28;20486;-67
2021/12/15 05:39:39;;;;;;;89.22;40.65;;;;;;;3.79;81.54;99724.06;5110482;28;20031;-67
2021/12/15 05:42:05;;;;;;;93.97;42.78;;;;;;;3.79;81.98;99724.91;5110437;28;20387;-67
2021/12/15 05:44:31;;;;;;;89.50;40.55;;;;;;;3.83;81.44;99715.28;5110752;28;20024;-68
2021/12/15 05:46:59;;;;;;;89.40;40.70;;;;;;;3.90;81.36;99722.53;5111126;28;20030;-68
2021/12/15 05:49:25;;;;;;;78.45;38.53;;;;;;;3.95;81.77;99733.56;5114105;28;20019;-67
2021/12/15 05:51:50;;;;;;;82.30;37.83;;;;;;;3.97;81.57;99734.16;5095785;28;20027;-66
2021/12/15 05:54:16;;;;;;;87.50;39.10;;;;;;;3.94;81.99;99730.03;5113733;28;20027;-67
2021/12/15 05:56:42;;;;;;;88.10;42.25;;;;;;;3.89;81.63;99738.00;5113265;28;20110;-67
2021/12/15 05:59:08;;;;;;;96.28;40.45;;;;;;;3.81;80.71;99733.69;5113133;28;20532;-67
2021/12/15 06:01:34;;;;;;;100.05;43.10;;;;;;;3.77;81.66;99729.72;5113118;28;20028;-67
2021/12/15 06:04:03;;;;;;;94.75;41.65;;;;;;;3.75;80.63;99741.84;5113902;28;20483;-67
2021/12/15 06:06:29;;;;;;;84.97;37.85;;;;;;;3.69;81.09;99746.28;5111884;28;20020;-67
2021/12/15 06:08:55;;;;;;;77.78;36.00;;;;;;;3.64;80.85;99738.81;5113964;28;20020;-67
2021/12/15 06:11:20;;;;;;;86.78;40.00;;;;;;;3.61;81.49;99739.25;5093922;28;20019;-67
2021/12/15 06:13:48;;;;;;;80.68;39.65;;;;;;;3.60;81.61;99748.44;5111707;28;20115;-67
2021/12/15 06:16:15;;;;;;;75.45;37.03;;;;;;;3.62;81.18;99745.47;5112710;28;20031;-66
2021/12/15 06:18:40;;;;;;;78.80;35.92;;;;;;;3.61;81.25;99741.97;5111429;28;20509;-67
2021/12/15 06:21:06;;;;;;;77.75;36.75;;;;;;;3.62;81.04;99745.47;5113166;28;20032;-67
2021/12/15 06:23:31;;;;;;;78.45;37.33;;;;;;;3.62;81.42;99743.63;5113611;28;20032;-67
2021/12/15 06:26:02;;;;;;;84.53;41.97;;;;;;;3.63;81.42;99756.13;5113768;28;20059;-66
2021/12/15 06:28:29;;;;;;;90.78;43.67;;;;;;;3.69;81.31;99757.94;5113334;28;20105;-67
2021/12/15 06:30:56;;;;;;;83.07;39.45;;;;;;;3.74;82.12;99762.75;5110493;28;20390;-66
2021/12/15 06:33:22;;;;;;;86.53;40.03;;;;;;;3.73;81.13;99763.78;5111066;28;20042;-67
2021/12/15 06:35:53;;;;;;;88.90;41.83;;;;;;;3.68;81.14;99761.72;5113109;28;20027;-67
2021/12/15 06:38:21;;;;;;;98.68;43.47;;;;;;;3.67;81.85;99756.53;5112848;28;20453;-67
2021/12/15 06:40:47;;;;;;;86.90;41.70;;;;;;;3.68;81.26;99769.03;5107367;28;20038;-67
2021/12/15 06:43:13;;;;;;;89.70;40.78;;;;;;;3.67;81.47;99768.19;5112182;28;20035;-67
2021/12/15 06:45:52;;;;;;;87.45;38.92;;;;;;;3.68;81.16;99783.41;5093420;28;20024;-67
2021/12/15 06:59:13;;;;;;;91.90;44.60;;;;;;;3.59;81.19;99784.75;5110985;28;20063;-67
2021/12/15 07:01:38;;;;;;;83.93;38.13;;;;;;;3.57;81.01;99787.66;5110487;28;20027;-67
2021/12/15 07:04:04;;;;;;;85.28;36.90;;;;;;;3.56;81.08;99780.56;5111487;28;20023;-66
2021/12/15 07:06:29;;;;;;;76.18;34.38;;;;;;;3.56;81.45;99780.56;5092097;28;20024;-67
2021/12/15 07:08:55;;;;;;;76.05;35.58;;;;;;;3.57;82.11;99784.13;5111427;28;20433;-67
2021/12/15 07:11:20;;;;;;;91.22;42.10;;;;;;;3.58;82.10;99789.31;5111617;28;20357;-67
2021/12/15 07:13:46;;;;;;;90.63;39.78;;;;;;;3.62;81.73;99788.91;5107363;28;20065;-67
2021/12/15 07:16:12;;;;;;;79.82;34.70;;;;;;;3.62;81.80;99788.91;5109796;27;20055;-67
2021/12/15 07:21:34;;;;;;;81.65;36.72;;;;;;;3.60;81.78;99797.25;5068639;28;20555;-67
2021/12/15 07:23:59;;;;;;;86.18;38.97;;;;;;;3.60;82.49;99791.00;5111902;28;20035;-68
2021/12/15 07:26:24;;;;;;;78.95;34.72;;;;;;;3.60;82.58;99796.41;5111468;28;20019;-67
2021/12/15 07:28:50;;;;;;;73.32;33.03;;;;;;;3.58;82.16;99799.34;5109706;28;20035;-67
2021/12/15 07:31:15;;;;;;;76.80;33.25;;;;;;;3.57;82.51;99793.09;5111249;28;20027;-67
2021/12/15 07:33:41;;;;;;;66.43;30.35;;;;;;;3.58;82.19;99793.94;5111103;28;20058;-67
2021/12/15 07:36:07;;;;;;;78.78;32.63;;;;;;;3.59;82.00;99801.03;5111691;28;20055;-67
2021/12/15 07:38:34;;;;;;;72.00;31.20;;;;;;;3.57;82.66;99803.94;5111695;28;20070;-67
2021/12/15 07:41:00;;;;;;;73.13;32.20;;;;;;;3.54;82.40;99792.69;5111272;28;20040;-67
2021/12/15 07:43:26;;;;;;;76.47;35.30;;;;;;;3.52;82.55;99808.34;5093089;28;20076;-67
2021/12/15 07:45:58;;;;;;;86.07;37.90;;;;;;;3.48;82.95;99799.81;5112120;28;20391;-67
2021/12/15 07:48:28;;;;;;;97.85;43.30;;;;;;;3.46;83.38;99799.22;5111782;28;20478;-67
2021/12/15 07:50:56;;;;;;;80.63;38.03;;;;;;;3.43;83.37;99807.78;5109640;28;20028;-67
2021/12/15 07:53:22;;;;;;;78.90;36.65;;;;;;;3.41;83.16;99810.69;5111612;28;20046;-67
2021/12/15 07:55:49;;;;;;;84.68;39.10;;;;;;;3.38;83.56;99819.25;5110925;28;20487;-66
2021/12/15 07:58:15;;;;;;;84.32;37.70;;;;;;;3.37;83.94;99814.88;5106030;27;20024;-66
2021/12/15 08:00:43;;;;;;;77.30;37.70;;;;;;;3.35;83.94;99824.28;5107743;28;20032;-69
2021/12/15 08:03:09;;;;;;;81.90;37.72;;;;;;;3.33;84.08;99826.38;5092301;28;20035;-70
2021/12/15 08:05:36;;;;;;;86.63;39.80;;;;;;;3.36;84.11;99839.53;5110270;28;20038;-68
2021/12/15 08:08:01;;;;;;;88.97;40.25;;;;;;;3.39;83.97;99844.53;5110627;28;20165;-68
2021/12/15 08:10:27;;;;;;;86.80;41.65;;;;;;;3.42;83.58;99844.91;5109227;28;20028;-69
2021/12/15 08:12:52;;;;;;;93.07;42.65;;;;;;;3.46;83.88;99849.91;5108227;28;20027;-69
2021/12/15 08:15:19;;;;;;;99.50;44.42;;;;;;;3.47;83.74;99844.25;5110679;28;20024;-69
2021/12/15 08:17:50;;;;;;;88.55;40.75;;;;;;;3.49;83.43;99844.06;5091485;28;20668;-69
2021/12/15 08:20:17;;;;;;;86.18;39.63;;;;;;;3.48;84.18;99847.81;5110400;28;20394;-68
2021/12/15 08:22:43;;;;;;;83.13;38.95;;;;;;;3.46;84.25;99842.63;5110086;28;20034;-68
2021/12/15 08:25:11;;;;;;;84.90;39.78;;;;;;;3.43;84.26;99843.88;5110759;28;20107;-69
2021/12/15 08:27:37;;;;;;;83.50;38.55;;;;;;;3.45;83.80;99842.81;5107966;28;20020;-68
2021/12/15 08:30:06;;;;;;;74.22;35.50;;;;;;;3.44;83.77;99842.00;5108411;28;20023;-66
2021/12/15 08:32:31;;;;;;;77.85;36.33;;;;;;;3.45;84.49;99840.09;5108301;28;20034;-70
2021/12/15 08:34:57;;;;;;;65.60;32.88;;;;;;;3.48;84.04;99845.09;5110614;28;20102;-70
2021/12/15 08:37:22;;;;;;;75.88;35.05;;;;;;;3.50;84.74;99851.16;5109746;28;20027;-70
2021/12/15 08:39:48;;;;;;;79.07;38.10;;;;;;;3.55;84.23;99849.44;5108598;28;20466;-69
2021/12/15 08:42:14;;;;;;;78.28;35.38;;;;;;;3.61;84.27;99849.63;5109002;28;20028;-69
2021/12/15 08:44:40;;;;;;;83.00;37.83;;;;;;;3.65;83.78;99849.00;5109441;28;20167;-68
2021/12/15 08:47:08;;;;;;;89.88;42.20;;;;;;;3.71;84.26;99855.44;5091917;28;20119;-70
2021/12/15 08:49:35;;;;;;;86.88;39.30;;;;;;;3.75;84.53;99856.66;5109203;28;20088;-69
2021/12/15 08:52:00;;;;;;;87.85;39.80;;;;;;;3.79;84.54;99866.03;5109905;28;20058;-71
2021/12/15 08:54:26;;;;;;;85.55;40.67;;;;;;;3.84;84.19;99877.09;5105119;28;20483;-69
2021/12/15 08:56:53;;;;;;;75.72;37.42;;;;;;;3.88;84.02;99872.84;5109831;28;20089;-69
2021/12/15 08:59:19;;;;;;;76.57;35.67;;;;;;;3.95;84.56;99872.00;5108888;28;20076;-69
2021/12/15 09:01:45;;;;;;;84.20;38.75;;;;;;;3.94;83.98;99878.47;5109731;28;20028;-69
2021/12/15 09:04:13;;;;;;;75.00;35.20;;;;;;;3.92;84.34;99881.41;5110281;28;20134;-69
2021/12/15 09:06:39;;;;;;;71.78;34.30;;;;;;;3.95;83.70;99889.13;5110325;28;20019;-69
2021/12/15 09:09:07;;;;;;;79.63;36.97;;;;;;;3.94;84.01;99876.59;5106524;28;20036;-70
2021/12/15 09:11:32;;;;;;;82.88;37.08;;;;;;;3.98;83.81;99876.97;5106329;28;20027;-70
2021/12/15 09:14:03;;;;;;;85.88;38.58;;;;;;;4.00;83.90;99880.31;5095613;28;20463;-69
2021/12/15 09:16:30;;;;;;;;;;;;;;;4.04;83.98;99878.00;5112625;28;20031;-72
2021/12/15 09:18:56;;;;;;;86.40;37.72;;;;;;;4.07;83.71;99872.16;5094261;28;19923;-69
2021/12/15 09:21:25;;;;;;;92.55;40.55;;;;;;;4.06;84.37;99870.50;5109478;28;20039;-69
2021/12/15 09:23:50;;;;;;;79.47;36.30;;;;;;;4.06;84.07;99870.50;5112932;28;20103;-69
2021/12/15 09:26:16;;;;;;;86.47;40.58;;;;;;;4.02;83.98;99862.78;5114154;28;20026;-69
2021/12/15 09:28:42;;;;;;;97.15;44.35;;;;;;;4.04;84.01;99869.88;5114191;27;20031;-69
2021/12/15 09:31:09;;;;;;;93.93;40.25;;;;;;;4.05;84.18;99868.81;5115791;27;20042;-69
2021/12/15 09:33:38;;;;;;;84.95;38.33;;;;;;;4.06;84.46;99871.31;5113898;28;20034;-70
2021/12/15 09:36:06;;;;;;;86.07;38.80;;;;;;;4.08;83.78;99865.66;5114275;28;20031;-70
2021/12/15 09:38:32;;;;;;;82.38;39.42;;;;;;;4.09;84.38;99868.16;5115246;27;20035;-69
2021/12/15 09:41:01;;;;;;;99.00;42.35;;;;;;;4.11;84.49;99866.06;5114136;27;20037;-70
2021/12/15 09:43:30;;;;;;;90.30;39.22;;;;;;;4.14;84.60;99872.91;5114683;27;20039;-69
2021/12/15 09:57:21;;;;;;;71.07;32.78;;;;;;;4.26;84.94;99859.50;5112510;28;20031;-69
2021/12/15 10:18:47;;;;;;;64.63;28.02;;;;;;;4.29;84.96;99861.75;5111939;28;20408;-71
2021/12/15 10:21:38;;;;;;;64.15;29.55;;;;;;;4.29;84.93;99859.88;5093855;28;20383;-68
2021/12/15 10:24:10;;;;;;;67.63;28.90;;;;;;;4.30;84.94;99856.09;5101953;27;20043;-68
2021/12/15 10:26:36;;;;;;;66.35;29.55;;;;;;;4.27;85.10;99851.09;5104773;28;20419;-69
2021/12/15 10:29:07;;;;;;;74.95;32.20;;;;;;;4.26;84.72;99848.63;5108442;28;20024;-69
2021/12/15 10:31:33;;;;;;;75.47;33.72;;;;;;;4.26;85.17;99848.63;5093439;28;20027;-68
2021/12/15 10:34:03;;;;;;;72.90;31.08;;;;;;;4.27;84.71;99847.56;5110321;28;20016;-69
2021/12/15 10:36:30;;;;;;;;;;;;;;;4.28;84.50;99857.38;5095293;28;20023;-73
2021/12/15 10:38:58;;;;;;;71.03;30.45;;;;;;;4.31;85.34;99851.50;5112242;28;19998;-69
2021/12/15 10:41:32;;;;;;;63.17;28.15;;;;;;;4.29;85.56;99845.44;5108126;28;20032;-69
2021/12/15 10:44:00;;;;;;;67.75;33.20;;;;;;;4.28;84.83;99843.81;5110933;28;20062;-72
2021/12/15 10:46:49;;;;;;;62.55;29.55;;;;;;;4.33;85.18;99843.94;5111634;27;20111;-70
2021/12/15 10:49:21;;;;;;;75.63;32.85;;;;;;;4.32;85.17;99835.00;5107677;28;20484;-70
2021/12/15 10:51:59;;;;;;;97.10;44.65;;;;;;;4.31;84.51;99837.91;5105301;27;20031;-69
2021/12/15 10:54:33;;;;;;;80.80;35.63;;;;;;;4.32;84.91;99834.13;5108678;27;20032;-69
2021/12/15 10:57:11;;;;;;;122.28;48.08;;;;;;;4.35;84.85;99825.56;5111510;27;20439;-70
2021/12/15 10:59:41;;;;;;;189.77;69.05;;;;;;;4.36;85.26;99818.25;5110940;27;20031;-69
2021/12/15 11:02:11;;;;;;;138.10;52.35;;;;;;;4.40;85.10;99814.84;5109888;28;20473;-69
2021/12/15 11:04:46;;;;;;;98.93;39.65;;;;;;;4.43;85.13;99808.97;5110382;28;20540;-70
2021/12/15 11:07:28;;;;;;;96.82;39.00;;;;;;;4.43;85.31;99814.41;5109826;28;20134;-69
2021/12/15 11:09:54;;;;;;;179.90;57.97;;;;;;;4.44;85.49;99812.53;5108605;28;20020;-68
2021/12/15 11:12:25;;;;;;;88.95;34.53;;;;;;;4.42;85.44;99818.19;5111833;28;20491;-69
2021/12/15 11:15:11;;;;;;;77.88;32.53;;;;;;;4.41;85.83;99811.09;5108841;28;20062;-68
2021/12/15 11:17:50;;;;;;;92.63;33.92;;;;;;;4.40;85.70;99811.31;5103966;27;20043;-69
2021/12/15 11:20:22;;;;;;;70.00;28.30;;;;;;;4.37;85.24;99809.06;5108728;28;20081;-70
2021/12/15 11:22:49;;;;;;;88.05;34.10;;;;;;;4.34;85.74;99810.31;5110865;28;20040;-69
2021/12/15 11:25:18;;;;;;;143.15;49.45;;;;;;;4.34;85.31;99810.31;5110050;27;20047;-69
2021/12/15 11:27:48;;;;;;;170.75;58.05;;;;;;;4.34;86.08;99796.72;5111242;28;21467;-69
2021/12/15 11:30:19;;;;;;;196.80;64.85;;;;;;;4.35;85.78;99801.09;5109361;28;20023;-69
2021/12/15 11:32:48;;;;;;;217.57;74.10;;;;;;;4.34;86.11;99791.28;5106744;28;20024;-70
2021/12/15 11:35:22;;;;;;;126.88;45.83;;;;;;;4.35;85.87;99787.53;5091214;28;20026;-71
2021/12/15 11:37:51;;;;;;;140.70;49.60;;;;;;;4.37;85.87;99785.41;5110773;28;20130;-71
2021/12/15 11:40:24;;;;;;;127.78;46.00;;;;;;;4.45;86.20;99798.72;5109955;27;20023;-70
2021/12/15 11:42:49;;;;;;;119.13;43.38;;;;;;;4.50;86.38;99806.19;5108705;28;20293;-71
2021/12/15 11:45:15;;;;;;;69.55;29.05;;;;;;;4.53;85.95;99797.59;5109867;28;20467;-70
2021/12/15 11:47:41;;;;;;;80.45;31.77;;;;;;;4.57;86.06;99801.53;5110833;28;20039;-70
2021/12/15 11:50:17;;;;;;;91.22;35.10;;;;;;;4.63;85.79;99788.97;5092518;28;20027;-71
2021/12/15 11:52:46;;;;;;;87.90;35.60;;;;;;;4.65;86.22;99799.59;5108898;28;20372;-70
2021/12/15 11:55:41;;;;;;;114.55;43.53;;;;;;;4.67;85.89;99784.75;5111705;28;20023;-71
2021/12/15 11:58:06;;;;;;;107.30;41.78;;;;;;;4.68;86.09;99786.41;5090155;28;20063;-71
2021/12/15 12:00:32;;;;;;;103.28;42.85;;;;;;;4.73;85.80;99783.00;5111724;28;20062;-71
2021/12/15 12:02:58;;;;;;;111.95;48.25;;;;;;;4.76;86.26;99777.94;5108588;28;20043;-71
2021/12/15 12:05:34;;;;;;;93.28;40.50;;;;;;;4.79;85.76;99786.69;5110355;28;20092;-71
2021/12/15 12:08:06;;;;;;;78.78;35.53;;;;;;;4.78;85.96;99785.88;5109550;28;20051;-71
2021/12/15 12:10:49;;;;;;;96.03;39.38;;;;;;;4.82;86.18;99780.81;5089426;28;20027;-70
2021/12/15 12:13:23;;;;;;;76.53;34.05;;;;;;;4.87;85.97;99787.25;5106117;27;20032;-68
2021/12/15 12:15:57;;;;;;;75.22;31.58;;;;;;;4.86;85.81;99782.88;5097088;28;20806;-67
2021/12/15 12:18:27;;;;;;;80.15;32.78;;;;;;;4.85;85.93;99786.63;5101260;27;20044;-68
2021/12/15 12:21:03;;;;;;;85.70;35.08;;;;;;;4.80;86.00;99781.06;5108744;27;20040;-68
2021/12/15 12:23:31;;;;;;;80.05;33.72;;;;;;;4.81;85.79;99781.88;5108728;28;20394;-70
2021/12/15 12:26:03;;;;;;;85.03;35.55;;;;;;;4.82;85.89;99772.66;5108429;27;20050;-69
2021/12/15 12:28:33;;;;;;;86.28;34.80;;;;;;;4.84;86.13;99767.81;5088898;28;20034;-69
2021/12/15 12:31:03;;;;;;;82.93;36.50;;;;;;;4.84;86.19;99763.22;5105499;27;20024;-70
2021/12/15 12:33:30;;;;;;;86.13;37.92;;;;;;;4.82;86.41;99772.66;5114016;27;20084;-69
2021/12/15 12:36:01;;;;;;;83.38;35.95;;;;;;;4.81;86.47;99768.28;5111882;27;20016;-69
2021/12/15 12:38:29;;;;;;;77.75;33.95;;;;;;;4.80;86.56;99763.88;5109348;28;20444;-71
2021/12/15 12:41:02;;;;;;;80.40;34.17;;;;;;;4.78;86.50;99761.41;5108302;28;20032;-70
2021/12/15 12:43:35;;;;;;;69.93;32.17;;;;;;;4.75;86.52;99764.59;5109910;27;20115;-72